M I D A S
Marine Information and Data Acquisition System
Tripno 2000 of the Zeeleeuw from 2010-12-07 07:11:42 to 2010-12-07 15:12:22
Back to CruiseResearch ActivitiesStationsMapUnderway DataData graphs

EquipmentUnitsComment
TimeDGPSUTC
LatitudeDGPSDM.mWGS84
LongitudeDGPSDM.mWGS84
TemperatureSBE03/SBE38deg celciusITS90
ConductivitySBE21S/mITS90
SalinitySBE21 Practical Salinity Units
ChlorophylAChelsea fluorimeterg/lCalibrated in Aceton
Missing or incorrect values are displayed as -999
Sea surface data collected by the RV Zeeleeuw from 2010-12-07 07:20:27 to 2010-12-07 15:10:41
Time Latitude Longitude Temperature Conductivity Salinity ChlorophylA
2010-12-07 07:21:32 51°13.659 2°55.958 12.874 2.125426 15.510854 -0.164791
2010-12-07 07:22:35 51°13.673 2°55.908 12.735 2.12532 15.511159 -0.199615
2010-12-07 07:23:36 51°13.688 2°55.799 12.7581 2.12532 15.510873 -0.164791
2010-12-07 07:24:34 51°13.685 2°55.736 12.7479 2.125321 15.514014 -0.199615
2010-12-07 07:25:33 51°13.7 2°55.732 12.745 2.125005 15.507218 -0.199615
2010-12-07 07:26:32 51°13.734 2°55.704 12.7301 2.125005 15.506361 -0.199615
2010-12-07 07:27:32 51°13.802 2°55.644 12.6321 2.124795 15.50383 -0.129967
2010-12-07 07:28:32 51°13.893 2°55.575 12.6646 2.1249 15.503526 -0.164791
2010-12-07 07:29:36 51°13.998 2°55.508 12.693 2.124795 15.502403 -0.164791
2010-12-07 07:30:36 51°14.096 2°55.44 12.6921 2.12469 15.501566 -0.199615
2010-12-07 07:31:36 51°14.191 2°55.366 12.6961 2.1249 15.503812 -0.164791
2010-12-07 07:32:36 51°14.28 2°55.273 12.6385 2.124479 15.501602 -0.164791
2010-12-07 07:33:35 51°14.37 2°55.176 12.5911 2.124479 15.501887 -0.164791
2010-12-07 07:34:34 51°14.472 2°55.071 12.3756 2.124795 15.502974 -0.164791
2010-12-07 07:35:34 51°14.584 2°54.942 12.3834 2.124479 15.49989 -0.199615
2010-12-07 07:36:32 51°14.682 2°54.778 12.4232 2.124479 15.506453 -0.164791
2010-12-07 07:37:32 51°14.676 2°54.535 12.3236 2.123849 15.498572 -0.199615
2010-12-07 07:38:32 51°14.562 2°54.308 12.2645 2.123428 15.494936 -0.199615
2010-12-07 07:39:32 51°14.448 2°54.05 12.2814 2.123743 15.496879 -0.199615
2010-12-07 07:40:32 51°14.332 2°53.787 12.2192 2.123428 15.495221 -0.164791
2010-12-07 07:41:32 51°14.213 2°53.52 12.2705 2.123323 15.495524 -0.164791
2010-12-07 07:42:32 51°14.093 2°53.252 12.2327 2.122902 15.491032 -0.199615
2010-12-07 07:43:32 51°13.978 2°52.977 12.25 2.123218 15.495257 -0.164791
2010-12-07 07:44:32 51°13.868 2°52.693 12.2982 2.122797 15.492476 -0.129967
2010-12-07 07:45:32 51°13.76 2°52.408 12.3119 2.122482 15.489107 -0.199615
2010-12-07 07:46:32 51°13.664 2°52.112 12.2487 2.122377 15.49055 -0.164791
2010-12-07 07:47:32 51°13.568 2°51.822 12.2914 2.122482 15.491959 -0.164791
2010-12-07 07:48:32 51°13.497 2°51.609 12.3363 2.122167 15.494295 -0.164791
2010-12-07 07:49:32 51°13.441 2°51.465 12.3362 2.122167 15.493153 -0.164791
2010-12-07 07:50:32 51°13.415 2°51.394 12.3594 2.121851 15.492636 -0.164791
2010-12-07 07:51:32 51°13.396 2°51.346 12.2302 2.121746 15.488945 -0.199615
2010-12-07 07:52:32 51°13.377 2°51.298 12.2615 2.121325 15.485593 -0.129967
2010-12-07 07:53:32 51°13.359 2°51.253 12.2905 2.121431 15.49071 -0.129967
2010-12-07 07:54:32 51°13.341 2°51.208 12.3098 2.121325 15.488445 -0.164791
2010-12-07 07:55:32 51°13.324 2°51.164 12.3318 2.12101 15.485645 -0.164791
2010-12-07 07:56:32 51°13.3 2°51.117 12.3602 2.12122 15.48989 -0.199615
2010-12-07 07:57:32 51°13.242 2°51.085 12.3528 2.120589 15.480297 -0.164791
2010-12-07 07:58:32 51°13.152 2°51.086 12.3842 2.120695 15.481135 -0.164791
2010-12-07 07:59:32 51°13.066 2°51.07 12.3876 2.120484 15.481454 -0.164791
2010-12-07 08:00:32 51°12.995 2°51.025 12.4402 2.12059 15.483719 -0.164791
2010-12-07 08:01:32 51°12.935 2°50.971 12.467 2.120379 15.484039 -0.164791
2010-12-07 08:02:32 51°12.884 2°50.903 12.4501 2.120064 15.487231 -0.164791
2010-12-07 08:03:32 51°12.833 2°50.833 12.506 2.120274 15.486339 -0.164791
2010-12-07 08:04:32 51°12.789 2°50.746 12.5234 2.119643 15.483591 -0.164791
2010-12-07 08:05:32 51°12.751 2°50.647 12.5464 2.119538 15.483323 -0.129967
2010-12-07 08:06:32 51°12.711 2°50.547 12.5776 2.119013 15.481128 -0.164791
2010-12-07 08:07:32 51°12.669 2°50.449 12.6069 2.119013 15.481413 -0.129967
2010-12-07 08:08:32 51°12.626 2°50.352 12.62 2.118802 15.480592 -0.164791
2010-12-07 08:09:32 51°12.581 2°50.256 12.6446 2.118592 15.481198 -0.164791
2010-12-07 08:10:32 51°12.537 2°50.16 12.6623 2.118277 15.479823 -0.129967
2010-12-07 08:11:32 51°12.493 2°50.064 12.6879 2.118172 15.478699 -0.164791
2010-12-07 08:12:32 51°12.448 2°49.97 12.681 2.117751 15.477341 -0.164791
2010-12-07 08:13:32 51°12.405 2°49.875 12.7325 2.117646 15.476788 -0.164791
2010-12-07 08:14:32 51°12.367 2°49.776 12.7462 2.117331 15.476269 -0.164791
2010-12-07 08:15:32 51°12.333 2°49.674 12.7471 2.117226 15.476858 -0.164791
2010-12-07 08:16:32 51°12.297 2°49.575 12.7817 2.11712 15.476875 -0.164791
2010-12-07 08:17:32 51°12.261 2°49.475 12.8133 2.1167 15.474375 -0.129967
2010-12-07 08:18:32 51°12.225 2°49.375 12.811 2.11691 15.476339 -0.129967
2010-12-07 08:19:32 51°12.189 2°49.275 12.8678 2.116069 15.472766 -0.164791
2010-12-07 08:20:32 51°12.152 2°49.176 12.881 2.116069 15.47248 -0.164791
2010-12-07 08:21:32 51°12.116 2°49.075 12.8817 2.115544 15.470568 -0.129967
2010-12-07 08:22:32 51°12.08 2°48.976 12.9257 2.115333 15.469174 -0.164791
2010-12-07 08:23:32 51°12.043 2°48.877 12.9492 2.115333 15.471459 -0.164791
2010-12-07 08:24:32 51°12.006 2°48.778 12.9664 2.115018 15.469512 -0.164791
2010-12-07 08:25:32 51°11.969 2°48.68 12.9975 2.114492 15.468741 -0.164791
2010-12-07 08:26:32 51°11.932 2°48.581 13.0011 2.114387 15.468187 -0.199615
2010-12-07 08:27:32 51°11.897 2°48.48 13.0312 2.114072 15.465953 -0.164791
2010-12-07 08:28:32 51°11.867 2°48.376 13.0427 2.113756 15.465434 -0.164791
2010-12-07 08:29:32 51°11.844 2°48.269 13.0827 2.113336 15.464645 -0.199615
2010-12-07 08:30:32 51°11.824 2°48.162 13.1047 2.113021 15.462697 -0.199615
2010-12-07 08:31:32 51°11.804 2°48.055 13.1149 2.11281 15.462731 -0.164791
2010-12-07 08:32:32 51°11.789 2°47.946 13.1382 2.112916 15.465858 -0.164791
2010-12-07 08:33:32 51°11.775 2°47.837 13.1649 2.11239 15.463371 -0.164791
2010-12-07 08:34:32 51°11.76 2°47.727 13.1426 2.112285 15.463103 -0.164791
2010-12-07 08:35:32 51°11.756 2°47.619 13.1942 2.111759 15.463475 -0.164791
2010-12-07 08:36:32 51°11.758 2°47.524 13.2115 2.111654 15.465495 -0.129967
2010-12-07 08:37:32 51°11.756 2°47.436 13.2327 2.111234 15.463562 -0.164791
2010-12-07 08:38:32 51°11.757 2°47.351 13.2553 2.110918 15.462756 -0.164791
2010-12-07 08:39:32 51°11.766 2°47.271 13.2805 2.110393 15.460268 -0.164791
2010-12-07 08:40:32 51°11.785 2°47.202 13.3087 2.110077 15.459462 -0.199615
2010-12-07 08:41:32 51°11.827 2°47.163 13.2246 2.109446 15.4527 -0.199615
2010-12-07 08:42:32 51°11.849 2°47.224 13.2974 2.109867 15.473532 -0.164791
2010-12-07 08:43:32 51°11.846 2°47.256 13.3191 2.109026 15.463359 -0.164791
2010-12-07 08:44:32 51°11.829 2°47.296 13.3247 2.108605 15.453695 -0.199615
2010-12-07 08:45:32 51°11.75 2°47.312 13.3382 2.107975 15.454657 -0.199615
2010-12-07 08:46:32 51°11.678 2°47.151 13.3755 2.10787 15.469004 -0.199615
2010-12-07 08:47:32 51°11.616 2°46.856 13.3899 2.106924 15.455404 -0.164791
2010-12-07 08:48:32 51°11.544 2°46.502 13.4126 2.107029 15.465994 -0.164791
2010-12-07 08:49:32 51°11.456 2°46.143 13.4371 2.106293 15.462678 -0.164791
2010-12-07 08:50:32 51°11.348 2°45.795 13.4598 2.105137 15.455703 -0.164791
2010-12-07 08:51:32 51°11.23 2°45.455 13.4877 2.104611 15.456653 -0.129967
2010-12-07 08:52:32 51°11.11 2°45.12 13.5081 2.104086 15.456456 -0.164791
2010-12-07 08:53:32 51°10.991 2°44.791 13.5312 2.10356 15.456546 -0.164791
2010-12-07 08:54:32 51°10.864 2°44.475 13.5534 2.102719 15.457553 -0.199615
2010-12-07 08:55:32 51°10.745 2°44.153 13.5704 2.101773 15.454843 -0.164791
2010-12-07 08:56:32 51°10.625 2°43.834 13.5861 2.101142 15.456103 -0.164791
2010-12-07 08:57:32 51°10.505 2°43.517 13.6046 2.100301 15.453661 -0.164791
2010-12-07 08:58:32 51°10.386 2°43.224 13.6303 2.099881 15.455173 -0.164791
2010-12-07 08:59:32 51°10.3 2°43.025 13.6457 2.099145 15.456455 -0.164791
2010-12-07 09:00:32 51°10.24 2°42.89 4.9343 2.20082 16.326541 -0.269263
2010-12-07 09:01:32 51°10.199 2°42.831 4.6956 3.414884 34.750589 0.078977
2010-12-07 09:02:32 51°10.191 2°42.805 4.692 3.230969 33.504303 0.113802
2010-12-07 09:03:32 51°10.187 2°42.785 4.6886 3.219483 33.458438 0.113802
2010-12-07 09:04:32 51°10.181 2°42.763 4.6905 3.213582 33.424812 0.078977
2010-12-07 09:05:32 51°10.173 2°42.742 4.6875 3.214426 33.454813 0.044153
2010-12-07 09:06:32 51°10.165 2°42.72 4.6835 3.212213 33.446939 0.044153
2010-12-07 09:07:32 51°10.139 2°42.66 4.6862 3.208525 33.415854 0.009329
2010-12-07 09:08:32 51°10.106 2°42.471 4.6911 3.20726 33.410965 0.044153
2010-12-07 09:09:32 51°10.16 2°42.183 4.7438 3.205363 33.380257 0.009329
2010-12-07 09:10:32 51°10.144 2°41.84 4.8386 3.2198 33.492948 -0.025495
2010-12-07 09:11:32 51°10.014 2°41.55 4.8247 3.236239 33.609886 0.009329
2010-12-07 09:12:32 51°9.96 2°41.21 4.8216 3.234448 33.60252 0.009329
2010-12-07 09:13:32 51°9.981 2°40.85 4.8688 3.233605 33.593696 0.009329
2010-12-07 09:14:32 51°10.015 2°40.487 4.9648 3.2433 33.654889 0.009329
2010-12-07 09:15:32 51°10.05 2°40.123 4.9854 3.256578 33.721755 -0.025495
2010-12-07 09:16:32 51°10.099 2°39.763 4.8665 3.256156 33.708967 -0.060319
2010-12-07 09:17:33 51°10.149 2°39.396 4.8465 3.238768 33.625737 -0.060319
2010-12-07 09:18:32 51°10.151 2°39.036 4.9201 3.236239 33.611654 -0.025495
2010-12-07 09:19:32 51°10.065 2°38.689 4.9878 3.248147 33.677925 -0.060319
2010-12-07 09:20:32 51°9.96 2°38.523 4.9929 3.259529 33.746793 -0.025495
2010-12-07 09:21:32 51°9.865 2°38.46 4.9747 3.260161 33.757588 -0.095143
2010-12-07 09:22:32 51°9.796 2°38.383 4.9713 3.257421 33.739389 -0.060319
2010-12-07 09:23:32 51°9.747 2°38.3 4.8799 3.255946 33.728634 -0.060319
2010-12-07 09:24:32 51°9.711 2°38.207 4.8692 3.194824 33.134493 -0.060319
2010-12-07 09:25:32 51°9.677 2°38.115 4.874 3.202938 33.214631 -0.060319
2010-12-07 09:26:32 51°9.646 2°38.024 4.899 3.205151 33.232195 -0.095143
2010-12-07 09:27:32 51°9.617 2°37.932 4.9112 3.21179 33.293595 -0.060319
2010-12-07 09:28:32 51°9.588 2°37.838 4.8894 3.205994 33.229653 -0.060319
2010-12-07 09:29:32 51°9.556 2°37.739 4.9198 3.200093 33.167996 -0.060319
2010-12-07 09:30:32 51°9.523 2°37.634 4.9371 3.215056 33.309246 -0.095143
2010-12-07 09:31:32 51°9.49 2°37.528 4.9335 3.216848 33.319318 -0.095143
2010-12-07 09:32:32 51°9.457 2°37.425 4.937 3.211157 33.261871 -0.060319
2010-12-07 09:33:32 51°9.425 2°37.324 4.9436 3.213581 33.279208 -0.095143
2010-12-07 09:34:32 51°9.396 2°37.221 4.9602 3.219798 33.340063 -0.129967
2010-12-07 09:35:32 51°9.37 2°37.117 4.9593 3.224435 33.383641 -0.095143
2010-12-07 09:36:32 51°9.346 2°37.012 4.9242 3.219904 33.332529 -0.095143
2010-12-07 09:37:32 51°9.323 2°36.907 4.9182 3.204097 33.186079 -0.095143
2010-12-07 09:38:32 51°9.3 2°36.802 4.9203 3.203991 33.187484 -0.095143
2010-12-07 09:39:32 51°9.277 2°36.697 4.9556 3.202095 33.166588 -0.095143
2010-12-07 09:40:32 51°9.262 2°36.59 4.9339 3.210946 33.257706 -0.129967
2010-12-07 09:41:32 51°9.252 2°36.482 4.9944 3.222644 33.368337 -0.129967
2010-12-07 09:42:32 51°9.244 2°36.373 4.9905 3.234236 33.468907 -0.095143
2010-12-07 09:43:32 51°9.237 2°36.263 5.0093 3.233814 33.461443 -0.164791
2010-12-07 09:44:32 51°9.229 2°36.153 4.9999 3.240032 33.514321 -0.095143
2010-12-07 09:45:32 51°9.222 2°36.042 5.0089 3.234552 33.457632 -0.129967
2010-12-07 09:46:32 51°9.214 2°35.931 5.0472 3.237291 33.472392 -0.164791
2010-12-07 09:47:32 51°9.207 2°35.822 5.034 3.240874 33.490668 -0.129967
2010-12-07 09:48:32 51°9.199 2°35.713 5.0536 3.232865 33.396327 -0.129967
2010-12-07 09:49:32 51°9.192 2°35.605 5.0278 3.229071 33.345048 -0.164791
2010-12-07 09:50:32 51°9.184 2°35.498 5.09 3.220113 33.249514 -0.164791
2010-12-07 09:51:32 51°9.176 2°35.392 5.1356 3.226963 33.268746 -0.129967
2010-12-07 09:52:32 51°9.169 2°35.286 5.1694 3.229597 33.272796 -0.164791
2010-12-07 09:53:32 51°9.162 2°35.182 5.1064 3.236868 33.321073 -0.129967
2010-12-07 09:54:32 51°9.154 2°35.078 5.1376 3.216635 33.142137 -0.129967
2010-12-07 09:55:32 51°9.147 2°34.973 5.1618 3.219375 33.151794 -0.095143
2010-12-07 09:56:32 51°9.139 2°34.867 5.1342 3.226541 33.208464 -0.129967
2010-12-07 09:57:32 51°9.135 2°34.763 5.1573 3.217583 33.131354 -0.129967
2010-12-07 09:58:32 51°9.143 2°34.663 5.1483 3.212631 33.091245 -0.164791
2010-12-07 09:59:32 51°9.163 2°34.574 5.1735 3.213263 33.088103 -0.129967
2010-12-07 10:00:32 51°9.192 2°34.499 5.4258 3.228753 33.177526 -0.164791
2010-12-07 10:01:32 51°9.224 2°34.434 5.57 3.28545 33.591678 -0.129967
2010-12-07 10:02:32 51°9.258 2°34.381 5.617 3.31359 33.797529 -0.129967
2010-12-07 10:03:32 51°9.298 2°34.342 5.696 3.321389 33.832705 -0.164791
2010-12-07 10:04:32 51°9.338 2°34.327 5.7087 3.329399 33.849358 -0.164791
2010-12-07 10:05:32 51°9.372 2°34.313 5.7107 3.330874 33.851259 -0.164791
2010-12-07 10:06:32 51°9.393 2°34.297 5.7244 3.330558 33.84336 -0.164791
2010-12-07 10:07:32 51°9.405 2°34.279 5.7386 3.332033 33.849596 -0.164791
2010-12-07 10:08:32 51°9.412 2°34.262 5.8778 3.336354 33.867102 -0.199615
2010-12-07 10:09:32 51°9.457 2°34.305 5.9635 3.349845 33.901217 -0.199615
2010-12-07 10:10:32 51°9.589 2°34.477 6.0622 3.362387 33.941826 -0.199615
2010-12-07 10:11:32 51°9.746 2°34.69 6.1484 3.375667 33.987964 -0.199615
2010-12-07 10:12:32 51°9.905 2°34.908 6.1521 3.387367 34.052398 -0.199615
2010-12-07 10:13:32 51°10.061 2°35.127 6.1239 3.388527 34.059317 -0.164791
2010-12-07 10:14:32 51°10.215 2°35.352 6.0933 3.386102 34.059793 -0.199615
2010-12-07 10:15:32 51°10.351 2°35.605 6.0585 3.383467 34.060504 -0.164791
2010-12-07 10:16:32 51°10.473 2°35.876 6.0248 3.382519 34.08095 -0.199615
2010-12-07 10:17:32 51°10.596 2°36.146 6.0042 3.379041 34.078299 -0.164791
2010-12-07 10:18:32 51°10.718 2°36.415 6.0019 3.379568 34.099765 -0.164791
2010-12-07 10:19:32 51°10.84 2°36.683 6.0049 3.380306 34.109762 -0.164791
2010-12-07 10:20:32 51°10.963 2°36.951 5.9927 3.382414 34.134247 -0.164791
2010-12-07 10:21:32 51°11.088 2°37.218 5.9816 3.382414 34.14551 -0.199615
2010-12-07 10:22:32 51°11.211 2°37.486 5.9969 3.381466 34.141811 -0.164791
2010-12-07 10:23:32 51°11.335 2°37.754 6.0155 3.383152 34.145113 -0.199615
2010-12-07 10:24:32 51°11.46 2°38.024 6.0334 3.384417 34.142826 -0.199615
2010-12-07 10:25:32 51°11.585 2°38.293 6.0515 3.387474 34.15541 -0.164791
2010-12-07 10:26:32 51°11.71 2°38.561 6.0207 3.390109 34.173653 -0.164791
2010-12-07 10:27:32 51°11.835 2°38.829 5.7072 3.384417 34.17056 -0.164791
2010-12-07 10:28:32 51°11.96 2°39.096 5.4143 3.348266 34.081494 -0.199615
2010-12-07 10:29:32 51°12.085 2°39.364 5.2538 3.31201 33.924542 -0.199615
2010-12-07 10:30:32 51°12.21 2°39.633 5.1529 3.288087 33.815411 -0.199615
2010-12-07 10:31:32 51°12.335 2°39.903 5.1367 3.273438 33.736025 -0.164791
2010-12-07 10:32:32 51°12.46 2°40.17 5.0841 3.26701 33.686261 -0.129967
2010-12-07 10:33:32 51°12.584 2°40.438 5.0144 3.25742 33.634516 -0.095143
2010-12-07 10:34:32 51°12.709 2°40.705 4.9776 3.24783 33.585283 -0.129967
2010-12-07 10:35:32 51°12.829 2°40.98 4.9614 3.24235 33.557598 -0.129967
2010-12-07 10:36:32 51°12.947 2°41.257 4.9435 3.240875 33.556496 -0.164791
2010-12-07 10:37:32 51°13.065 2°41.532 4.9206 3.237503 33.541532 -0.129967
2010-12-07 10:38:32 51°13.184 2°41.808 4.9042 3.233815 33.519402 -0.164791
2010-12-07 10:39:32 51°13.303 2°42.084 4.8748 3.231812 33.510473 -0.164791
2010-12-07 10:40:32 51°13.423 2°42.362 4.8629 3.226649 33.482789 -0.164791
2010-12-07 10:41:32 51°13.544 2°42.643 4.883 3.226227 33.485863 -0.164791
2010-12-07 10:42:32 51°13.666 2°42.923 4.9001 3.2296 33.504396 -0.129967
2010-12-07 10:43:32 51°13.788 2°43.203 4.9161 3.232972 33.527316 -0.164791
2010-12-07 10:44:32 51°13.912 2°43.48 4.9322 3.23392 33.527653 -0.164791
2010-12-07 10:45:32 51°14.036 2°43.758 4.9544 3.239822 33.577845 -0.164791
2010-12-07 10:46:32 51°14.158 2°44.038 4.9611 3.241929 33.580914 -0.234439
2010-12-07 10:47:32 51°14.272 2°44.327 4.9802 3.241507 33.572553 -0.164791
2010-12-07 10:48:32 51°14.385 2°44.617 5.0674 3.244985 33.585186 -0.199615
2010-12-07 10:49:32 51°14.5 2°44.907 5.0413 3.256682 33.643645 -0.164791
2010-12-07 10:50:32 51°14.598 2°45.212 5.0147 3.250148 33.590767 -0.164791
2010-12-07 10:51:32 51°14.682 2°45.528 4.9727 3.242877 33.535532 -0.129967
2010-12-07 10:52:32 51°14.768 2°45.843 4.9315 3.231496 33.444494 -0.164791
2010-12-07 10:53:32 51°14.854 2°46.154 4.6946 3.217902 33.331413 -0.164791
2010-12-07 10:54:32 51°14.938 2°46.463 4.6228 3.161316 32.913412 -0.129967
2010-12-07 10:55:32 51°15.017 2°46.776 4.5553 3.137292 32.710113 -0.129967
2010-12-07 10:56:32 51°15.064 2°47.107 4.4805 3.118854 32.557788 -0.129967
2010-12-07 10:57:32 51°15.109 2°47.44 4.4173 3.106948 32.490152 -0.129967
2010-12-07 10:58:31 51°15.154 2°47.768 4.3583 3.087352 32.328881 -0.095143
2010-12-07 10:59:32 51°15.201 2°48.106 4.3078 3.07039 32.183965 -0.095143
2010-12-07 11:00:32 51°15.248 2°48.439 4.2765 3.04953 31.994388 -0.095143
2010-12-07 11:01:32 51°15.287 2°48.776 4.2652 3.039838 31.905884 -0.129967
2010-12-07 11:02:32 51°15.318 2°49.12 4.3622 3.047107 31.997958 -0.129967
2010-12-07 11:03:32 51°15.352 2°49.468 4.3441 3.098626 32.514131 -0.164791
2010-12-07 11:04:32 51°15.423 2°49.794 4.3131 3.09104 32.445145 -0.129967
2010-12-07 11:05:32 51°15.537 2°50.09 4.2606 3.075869 32.297523 -0.129967
2010-12-07 11:06:32 51°15.649 2°50.388 4.2449 3.047213 32.009469 -0.060319
2010-12-07 11:07:31 51°15.771 2°50.664 4.1658 3.026248 31.794217 -0.060319
2010-12-07 11:08:32 51°15.918 2°50.924 4.1405 2.986745 31.393996 -0.025495
2010-12-07 11:09:32 51°16.074 2°51.16 4.1211 2.967047 31.192186 0.009329
2010-12-07 11:10:32 51°16.24 2°51.378 4.1385 2.951246 31.025488 0.009329
2010-12-07 11:11:32 51°16.41 2°51.585 4.1597 2.94598 30.946875 0.044153
2010-12-07 11:12:32 51°16.587 2°51.782 4.1601 2.933656 30.787426 0.113802
2010-12-07 11:13:32 51°16.772 2°51.954 4.162 2.919963 30.630491 0.148626
2010-12-07 11:14:32 51°16.97 2°52.093 4.163 2.911537 30.530491 0.148626
2010-12-07 11:15:32 51°17.167 2°52.234 4.1666 2.908587 30.493908 0.113802
2010-12-07 11:16:31 51°17.363 2°52.378 4.1774 2.905954 30.461808 0.18345
2010-12-07 11:17:32 51°17.565 2°52.529 4.1935 2.91101 30.508003 0.148626
2010-12-07 11:18:32 51°17.759 2°52.686 4.1999 2.913222 30.522112 0.113802
2010-12-07 11:19:32 51°17.947 2°52.861 4.2208 2.904795 30.415724 0.113802
2010-12-07 11:20:32 51°18.136 2°53.037 4.2462 2.902689 30.372641 0.148626
2010-12-07 11:21:32 51°18.323 2°53.218 4.2631 2.9049 30.375373 0.113802
2010-12-07 11:22:32 51°18.483 2°53.454 4.2697 2.903952 30.348173 0.078977
2010-12-07 11:23:32 51°18.588 2°53.761 4.2691 2.903004 30.332368 0.113802
2010-12-07 11:24:32 51°18.665 2°54.097 4.2716 2.902162 30.324278 0.078977
2010-12-07 11:25:31 51°18.745 2°54.428 4.2742 2.902162 30.321842 0.078977
2010-12-07 11:26:32 51°18.832 2°54.773 4.2754 2.902056 30.32144 0.113802
2010-12-07 11:27:31 51°18.917 2°55.108 4.2762 2.902583 30.32264 0.18345
2010-12-07 11:28:32 51°19.006 2°55.454 4.2814 2.906059 30.361896 0.044153
2010-12-07 11:29:32 51°19.095 2°55.793 4.2871 2.907638 30.376859 0.044153
2010-12-07 11:30:32 51°19.183 2°56.135 4.3023 2.912589 30.425793 0.18345
2010-12-07 11:31:32 51°19.273 2°56.475 4.3013 2.916064 30.455272 0.113802
2010-12-07 11:32:32 51°19.362 2°56.815 4.3135 2.918592 30.481964 0.044153
2010-12-07 11:33:32 51°19.451 2°57.153 4.3042 2.919435 30.485969 0.044153
2010-12-07 11:34:32 51°19.542 2°57.492 4.2834 2.91638 30.462988 -0.025495
2010-12-07 11:35:32 51°19.634 2°57.831 4.3163 2.910166 30.394613 0.009329
2010-12-07 11:36:32 51°19.724 2°58.17 4.3266 2.903846 30.30152 -0.060319
2010-12-07 11:37:32 51°19.816 2°58.509 4.3334 2.901424 30.265537 -0.025495
2010-12-07 11:38:32 51°19.907 2°58.851 4.3581 2.898159 30.222305 -0.025495
2010-12-07 11:39:32 51°19.992 2°59.202 4.3631 2.904899 30.274798 0.044153
2010-12-07 11:40:32 51°20.072 2°59.558 4.3706 2.905531 30.278832 0.009329
2010-12-07 11:41:32 51°20.15 2°59.911 4.3766 2.906479 30.283265 0.044153
2010-12-07 11:42:32 51°20.23 3°0.262 4.3858 2.906584 30.278011 0.009329
2010-12-07 11:43:32 51°20.31 3°0.611 4.3876 2.905426 30.252585 -0.025495
2010-12-07 11:44:32 51°20.39 3°0.963 4.3737 2.905531 30.259445 -0.060319
2010-12-07 11:45:32 51°20.471 3°1.315 4.3899 2.904267 30.262682 -0.025495
2010-12-07 11:46:32 51°20.554 3°1.668 4.4044 2.905215 30.26308 -0.060319
2010-12-07 11:47:32 51°20.637 3°2.022 4.4267 2.907848 30.278805 -0.060319
2010-12-07 11:48:32 51°20.721 3°2.378 4.4793 2.912798 30.309825 -0.025495
2010-12-07 11:49:32 51°20.806 3°2.736 4.5057 2.920487 30.362538 -0.025495
2010-12-07 11:50:32 51°20.892 3°3.095 4.5259 2.926279 30.402317 -0.060319
2010-12-07 11:51:32 51°20.978 3°3.456 4.5366 2.928702 30.416351 -0.025495
2010-12-07 11:52:32 51°21.065 3°3.818 4.5431 2.929018 30.411891 -0.025495
2010-12-07 11:53:32 51°21.15 3°4.178 4.5841 2.933441 30.445609 -0.060319
2010-12-07 11:54:32 51°21.236 3°4.536 4.6275 2.945238 30.542687 -0.095143
2010-12-07 11:55:32 51°21.323 3°4.894 4.6428 2.951347 30.583445 -0.095143
2010-12-07 11:56:32 51°21.409 3°5.254 4.6384 2.949451 30.554469 -0.060319
2010-12-07 11:57:32 51°21.497 3°5.612 4.6345 2.94587 30.511896 -0.095143
2010-12-07 11:58:32 51°21.585 3°5.972 4.6346 2.936706 30.403106 -0.095143
2010-12-07 11:59:32 51°21.673 3°6.334 4.6228 2.939761 30.445273 -0.095143
2010-12-07 12:00:32 51°21.763 3°6.695 4.5997 2.93639 30.408352 -0.095143
2010-12-07 12:01:32 51°21.851 3°7.06 4.5669 2.926384 30.324516 -0.095143
2010-12-07 12:02:32 51°21.94 3°7.425 4.5811 2.920591 30.275929 -0.095143
2010-12-07 12:03:32 51°22.03 3°7.791 4.5759 2.917642 30.242993 -0.095143
2010-12-07 12:04:32 51°22.119 3°8.161 4.5934 2.917115 30.237771 -0.060319
2010-12-07 12:05:32 51°22.208 3°8.535 4.657 2.927121 30.317676 -0.095143
2010-12-07 12:06:32 51°22.297 3°8.912 4.6764 2.940708 30.428711 -0.095143
2010-12-07 12:07:32 51°22.387 3°9.29 4.6518 2.940181 30.415452 -0.095143
2010-12-07 12:08:32 51°22.43 3°9.674 4.5906 2.930807 30.326072 -0.095143
2010-12-07 12:09:32 51°22.395 3°10.065 4.4928 2.906056 30.109696 -0.129967
2010-12-07 12:10:32 51°22.368 3°10.462 4.4801 2.881938 29.903933 -0.095143
2010-12-07 12:11:32 51°22.369 3°10.831 4.4337 2.872354 29.821226 -0.095143
2010-12-07 12:12:32 51°22.369 3°11.057 4.4001 2.858874 29.694578 -0.095143
2010-12-07 12:13:32 51°22.391 3°11.222 4.3968 2.844551 29.55736 -0.095143
2010-12-07 12:14:32 51°22.428 3°11.324 4.4366 2.844973 29.546426 -0.095143
2010-12-07 12:15:33 51°22.437 3°11.387 4.4614 2.864877 29.737199 -0.060319
2010-12-07 12:16:32 51°22.445 3°11.454 4.4916 2.872459 29.80577 -0.095143
2010-12-07 12:17:32 51°22.453 3°11.523 4.4952 2.878673 29.856244 -0.095143
2010-12-07 12:18:32 51°22.461 3°11.592 4.4958 2.878041 29.846634 -0.095143
2010-12-07 12:19:32 51°22.47 3°11.662 4.4965 2.878568 29.851071 -0.095143
2010-12-07 12:20:32 51°22.479 3°11.731 4.4846 2.878568 29.852658 -0.095143
2010-12-07 12:21:32 51°22.542 3°11.734 4.4371 2.876251 29.834085 -0.095143
2010-12-07 12:22:32 51°22.646 3°11.588 4.3886 2.854872 29.636898 -0.060319
2010-12-07 12:23:32 51°22.763 3°11.363 4.602 2.847711 29.588034 -0.060319
2010-12-07 12:24:32 51°22.883 3°11.136 4.6212 2.914166 30.172017 -0.129967
2010-12-07 12:25:32 51°23.006 3°10.907 4.6276 2.922592 30.247469 -0.060319
2010-12-07 12:26:32 51°23.13 3°10.675 4.6123 2.926383 30.283567 -0.129967
2010-12-07 12:27:32 51°23.247 3°10.467 4.6118 2.924804 30.275943 -0.129967
2010-12-07 12:28:32 51°23.301 3°10.36 4.6188 2.927226 30.30603 -0.129967
2010-12-07 12:29:32 51°23.363 3°10.301 4.6326 2.933546 30.368605 -0.129967
2010-12-07 12:30:32 51°23.445 3°10.326 4.648 2.940919 30.4432 -0.129967
2010-12-07 12:31:32 51°23.524 3°10.393 4.7365 2.952821 30.562267 -0.129967
2010-12-07 12:32:32 51°23.593 3°10.48 4.8283 2.989689 30.899765 -0.164791
2010-12-07 12:33:32 51°23.65 3°10.59 4.8531 3.013812 31.102321 -0.129967
2010-12-07 12:34:32 51°23.703 3°10.702 4.8765 3.024557 31.186313 -0.129967
2010-12-07 12:35:32 51°23.748 3°10.813 4.8921 3.026979 31.206544 -0.164791
2010-12-07 12:36:32 51°23.789 3°10.926 4.9761 3.038884 31.301918 -0.129967
2010-12-07 12:37:32 51°23.833 3°11.033 4.9883 3.055845 31.439842 -0.095143
2010-12-07 12:38:32 51°23.874 3°11.142 4.9818 3.059953 31.476689 -0.025495
2010-12-07 12:39:32 51°23.916 3°11.251 4.9826 3.065221 31.542389 -0.025495
2010-12-07 12:40:32 51°23.957 3°11.359 4.9821 3.067118 31.563142 -0.025495
2010-12-07 12:41:32 51°23.994 3°11.475 4.9905 3.067117 31.560662 -0.060319
2010-12-07 12:42:32 51°24.024 3°11.601 4.9926 3.066801 31.551283 -0.060319
2010-12-07 12:43:32 51°24.041 3°11.734 4.9973 3.064167 31.518021 -0.060319
2010-12-07 12:44:32 51°24.047 3°11.868 5.0042 3.063219 31.503114 -0.060319
2010-12-07 12:45:32 51°24.043 3°11.995 4.9874 3.065115 31.516431 -0.060319
2010-12-07 12:46:32 51°24.035 3°12.113 4.9388 3.05753 31.455721 -0.129967
2010-12-07 12:47:32 51°24.025 3°12.222 4.9106 3.047417 31.374398 -0.129967
2010-12-07 12:48:32 51°24.014 3°12.327 4.8789 3.035618 31.275406 -0.095143
2010-12-07 12:49:32 51°24.005 3°12.432 4.818 3.029718 31.226267 -0.095143
2010-12-07 12:50:32 51°23.996 3°12.537 4.7366 3.009177 31.060914 -0.164791
2010-12-07 12:51:32 51°23.991 3°12.648 4.687 2.989057 30.896624 -0.164791
2010-12-07 12:52:32 51°23.991 3°12.758 4.6768 2.973994 30.759589 -0.164791
2010-12-07 12:53:32 51°23.995 3°12.869 4.6748 2.967779 30.702395 -0.164791
2010-12-07 12:54:32 51°24.003 3°12.981 4.6713 2.963671 30.66276 -0.129967
2010-12-07 12:55:32 51°24.015 3°13.094 4.698 2.967357 30.695148 -0.129967
2010-12-07 12:56:32 51°24.032 3°13.206 4.7115 2.972413 30.739105 -0.129967
2010-12-07 12:57:32 51°24.05 3°13.318 4.7397 2.976205 30.767791 -0.129967
2010-12-07 12:58:32 51°24.065 3°13.429 4.8242 2.988635 30.876335 -0.095143
2010-12-07 12:59:32 51°24.079 3°13.54 4.7514 3.007491 31.04496 -0.129967
2010-12-07 13:00:32 51°24.093 3°13.65 4.7827 2.995482 30.939803 -0.129967
2010-12-07 13:01:32 51°24.107 3°13.758 4.7843 2.995377 30.938601 -0.129967
2010-12-07 13:02:32 51°24.121 3°13.865 4.7614 3.000223 30.980834 -0.095143
2010-12-07 13:03:32 51°24.134 3°13.973 4.74 2.991269 30.902317 -0.129967
2010-12-07 13:04:32 51°24.147 3°14.081 4.7319 2.987793 30.872417 -0.129967
2010-12-07 13:05:32 51°24.158 3°14.188 4.8358 2.984 30.839712 -0.129967
2010-12-07 13:06:32 51°24.171 3°14.295 4.8529 3.019816 31.156046 -0.095143
2010-12-07 13:07:32 51°24.184 3°14.403 4.8376 3.024346 31.19457 -0.129967
2010-12-07 13:08:32 51°24.199 3°14.51 4.8438 3.020448 31.159974 -0.095143
2010-12-07 13:09:32 51°24.212 3°14.616 4.8376 3.021923 31.174329 -0.095143
2010-12-07 13:10:32 51°24.222 3°14.719 4.8228 3.019921 31.15315 -0.095143
2010-12-07 13:11:32 51°24.235 3°14.822 4.8142 3.015286 31.115864 -0.095143
2010-12-07 13:12:32 51°24.248 3°14.923 4.7962 3.011599 31.083639 -0.129967
2010-12-07 13:13:32 51°24.259 3°15.025 4.8086 3.006438 31.037849 -0.095143
2010-12-07 13:14:32 51°24.27 3°15.126 4.8063 3.01023 31.070475 -0.060319
2010-12-07 13:15:32 51°24.28 3°15.224 4.8039 3.009809 31.066487 -0.025495
2010-12-07 13:16:32 51°24.29 3°15.319 4.7973 3.007702 31.049816 -0.025495
2010-12-07 13:17:32 51°24.292 3°15.408 4.7746 3.006227 31.037898 -0.025495
2010-12-07 13:18:32 51°24.289 3°15.49 4.7646 2.999064 30.97496 0.009329
2010-12-07 13:19:32 51°24.284 3°15.575 4.7567 2.995798 30.947487 -0.025495
2010-12-07 13:20:31 51°24.252 3°15.679 4.762 2.993586 30.927135 -0.060319
2010-12-07 13:21:32 51°24.193 3°15.734 4.702 2.990953 30.905229 0.078977
2010-12-07 13:22:32 51°24.135 3°15.774 4.6849 2.974942 30.767167 0.113802
2010-12-07 13:23:32 51°24.075 3°15.753 4.6928 2.967673 30.697947 0.078977
2010-12-07 13:24:32 51°24.051 3°15.733 4.6941 2.968095 30.699515 0.044153
2010-12-07 13:25:32 51°24.039 3°15.725 4.7035 2.970201 30.716276 0.078977
2010-12-07 13:26:32 51°24.032 3°15.726 4.6841 2.972203 30.734263 0.044153
2010-12-07 13:27:32 51°24.013 3°15.68 4.6962 2.965567 30.672261 0.044153
2010-12-07 13:28:32 51°23.964 3°15.522 4.7097 2.966831 30.682645 0.078977
2010-12-07 13:29:32 51°23.893 3°15.288 4.7587 2.974836 30.752156 0.044153
2010-12-07 13:30:32 51°23.815 3°15.016 4.7668 2.987371 30.854587 0.078977
2010-12-07 13:31:32 51°23.724 3°14.753 4.7543 2.988319 30.859708 0.044153
2010-12-07 13:32:32 51°23.629 3°14.496 4.7679 2.982947 30.809803 0.078977
2010-12-07 13:33:32 51°23.536 3°14.238 4.7791 2.990004 30.87568 0.148626
2010-12-07 13:34:32 51°23.443 3°13.986 4.7849 2.99643 30.937574 0.148626
2010-12-07 13:35:32 51°23.353 3°13.734 4.7207 2.997273 30.941481 0.148626
2010-12-07 13:36:32 51°23.261 3°13.483 4.6985 2.974941 30.746865 0.044153
2010-12-07 13:37:32 51°23.169 3°13.229 4.6674 2.965251 30.660551 0.044153
2010-12-07 13:38:32 51°23.079 3°12.975 4.6379 2.953559 30.556143 0.009329
2010-12-07 13:39:32 51°23.058 3°12.69 4.6328 2.943236 30.456783 0.009329
2010-12-07 13:40:32 51°23.037 3°12.4 4.661 2.941446 30.441966 0.009329
2010-12-07 13:41:32 51°23.011 3°12.108 4.6699 2.94924 30.507624 0.078977
2010-12-07 13:42:31 51°22.977 3°11.819 4.6569 2.951031 30.523232 0.113802
2010-12-07 13:43:32 51°22.938 3°11.52 4.6645 2.949977 30.517659 0.078977
2010-12-07 13:44:32 51°22.91 3°11.288 4.6681 2.952189 30.536464 0.113802
2010-12-07 13:45:32 51°22.912 3°11.21 4.6591 2.953769 30.552894 0.148626
2010-12-07 13:46:32 51°22.908 3°11.184 4.6572 2.953664 30.55977 0.113802
2010-12-07 13:47:32 51°22.909 3°11.172 4.6613 2.95398 30.564188 0.113802
2010-12-07 13:48:32 51°22.902 3°11.143 4.6595 2.954717 30.569378 0.113802
2010-12-07 13:49:31 51°22.882 3°11.098 4.6556 2.954823 30.573815 0.078977
2010-12-07 13:50:32 51°22.874 3°11.037 4.6568 2.954928 30.575827 0.113802
2010-12-07 13:51:32 51°22.888 3°10.971 4.6601 2.955033 30.577839 0.113802
2010-12-07 13:52:32 51°22.898 3°10.877 4.6611 2.955665 30.584252 0.113802
2010-12-07 13:53:32 51°22.88 3°10.731 4.6621 2.956719 30.594668 0.113802
2010-12-07 13:54:32 51°22.818 3°10.548 4.664 2.957667 30.604691 0.113802
2010-12-07 13:55:32 51°22.715 3°10.3 4.6472 2.957877 30.601433 0.148626
2010-12-07 13:56:32 51°22.604 3°10.041 4.5992 2.956298 30.605232 0.148626
2010-12-07 13:57:32 51°22.471 3°9.809 4.5949 2.947555 30.548157 0.148626
2010-12-07 13:58:32 51°22.328 3°9.596 4.5638 2.946502 30.539342 0.18345
2010-12-07 13:59:32 51°22.186 3°9.38 4.5477 2.938392 30.471587 0.18345
2010-12-07 14:00:32 51°22.045 3°9.164 4.5214 2.934284 30.440714 0.218274
2010-12-07 14:01:32 51°21.905 3°8.942 4.5241 2.927016 30.379271 0.253098
2010-12-07 14:02:32 51°21.764 3°8.719 4.5179 2.925963 30.363173 0.253098
2010-12-07 14:03:32 51°21.624 3°8.495 4.5041 2.923857 30.347105 0.287922
2010-12-07 14:04:32 51°21.483 3°8.269 4.4897 2.918801 30.30288 0.35757
2010-12-07 14:05:31 51°21.343 3°8.046 4.4603 2.914483 30.265471 0.496866
2010-12-07 14:06:32 51°21.2 3°7.817 4.4304 2.907953 30.214746 0.462042
2010-12-07 14:07:32 51°21.061 3°7.598 4.3717 2.902581 30.182883 0.392394
2010-12-07 14:08:32 51°20.926 3°7.388 4.3761 2.890786 30.095675 0.287922
2010-12-07 14:09:31 51°20.79 3°7.183 4.3703 2.888574 30.067866 0.113802
2010-12-07 14:10:32 51°20.651 3°6.966 4.3615 2.887416 30.062583 0.078977
2010-12-07 14:11:32 51°20.512 3°6.751 4.3452 2.886678 30.061336 0.148626
2010-12-07 14:12:32 51°20.372 3°6.535 4.3347 2.880781 30.010411 0.148626
2010-12-07 14:13:32 51°20.231 3°6.312 4.3123 2.879412 30.001089 0.148626
2010-12-07 14:14:32 51°20.09 3°6.087 4.2953 2.875726 29.977147 0.253098
2010-12-07 14:15:32 51°19.945 3°5.862 4.316 2.873198 29.958497 0.18345
2010-12-07 14:16:31 51°19.805 3°5.631 4.2621 2.874672 29.964236 0.322746
2010-12-07 14:17:32 51°19.661 3°5.391 4.1811 2.870987 29.970735 0.287922
2010-12-07 14:18:32 51°19.545 3°5.132 4.0768 2.866564 29.996127 0.462042
2010-12-07 14:19:32 51°19.463 3°4.842 4.0556 2.875201 30.177672 0.670986
2010-12-07 14:20:31 51°19.387 3°4.555 4.043 2.878572 30.245204 0.636162
2010-12-07 14:21:32 51°19.291 3°4.277 4.0305 2.879098 30.260282 0.496866
2010-12-07 14:22:32 51°19.179 3°4.016 4.0135 2.888261 30.38211 0.53169
2010-12-07 14:23:31 51°19.068 3°3.755 4.0075 2.893001 30.44698 0.392394
2010-12-07 14:24:32 51°18.954 3°3.484 3.993 2.895107 30.476377 0.392394
2010-12-07 14:25:32 51°18.843 3°3.216 3.9893 2.906061 30.621001 0.148626
2010-12-07 14:26:32 51°18.732 3°2.947 3.9878 2.911222 30.682678 0.148626
2010-12-07 14:27:31 51°18.622 3°2.685 3.9908 2.915857 30.736589 0.18345
2010-12-07 14:28:32 51°18.513 3°2.421 3.9951 2.922176 30.806796 0.218274
2010-12-07 14:29:32 51°18.404 3°2.163 4.0255 2.931234 30.904713 0.253098
2010-12-07 14:30:32 51°18.295 3°1.905 4.023 2.935764 30.942393 0.322746
2010-12-07 14:31:32 51°18.188 3°1.645 4.0317 2.929444 30.876369 0.218274
2010-12-07 14:32:32 51°18.08 3°1.388 4.0356 2.927232 30.847303 0.113802
2010-12-07 14:33:32 51°17.973 3°1.129 4.0491 2.932709 30.902682 0.009329
2010-12-07 14:34:31 51°17.865 3°0.87 4.3716 2.938081 30.960165 -0.025495
2010-12-07 14:35:32 51°17.753 3°0.6 4.0675 2.94998 30.775731 0.078977
2010-12-07 14:36:32 51°17.641 3°0.33 4.084 2.954828 31.121493 0.044153
2010-12-07 14:37:32 51°17.529 3°0.061 4.0921 2.963992 31.224735 0.044153
2010-12-07 14:38:31 51°17.419 2°59.795 4.1015 2.969997 31.285326 0.044153
2010-12-07 14:39:32 51°17.305 2°59.52 4.1046 2.974526 31.32959 0.078977
2010-12-07 14:40:32 51°17.192 2°59.248 4.1077 2.977686 31.364668 0.044153
2010-12-07 14:41:32 51°17.078 2°58.975 4.1199 2.981689 31.406171 0.009329
2010-12-07 14:42:32 51°16.962 2°58.699 4.1413 2.98822 31.467769 0.078977
2010-12-07 14:43:32 51°16.848 2°58.423 4.1562 2.998754 31.571657 0.044153
2010-12-07 14:44:32 51°16.734 2°58.149 4.1797 3.008129 31.669672 0.009329
2010-12-07 14:45:32 51°16.619 2°57.874 4.1908 3.018769 31.777253 0.009329
2010-12-07 14:46:32 51°16.505 2°57.599 4.2039 3.027829 31.871544 -0.025495
2010-12-07 14:47:32 51°16.39 2°57.325 4.2133 3.037521 31.968879 -0.060319
2010-12-07 14:48:32 51°16.277 2°57.05 4.2271 3.045001 32.046457 -0.060319
2010-12-07 14:49:32 51°16.164 2°56.776 4.2351 3.051743 32.108546 -0.025495
2010-12-07 14:50:32 51°16.05 2°56.499 4.2387 3.051216 32.096389 -0.060319
2010-12-07 14:51:32 51°15.929 2°56.228 4.2283 3.050374 32.085726 0.009329
2010-12-07 14:52:32 51°15.809 2°55.959 4.2151 3.048583 32.072641 -0.060319
2010-12-07 14:53:32 51°15.684 2°55.702 4.2242 3.045317 32.043253 -0.060319
2010-12-07 14:54:31 51°15.53 2°55.501 4.2272 3.045633 32.045209 -0.060319
2010-12-07 14:55:32 51°15.357 2°55.325 4.2901 3.047424 32.0583 -0.025495
2010-12-07 14:56:31 51°15.189 2°55.163 4.3152 3.072392 32.285653 -0.025495
2010-12-07 14:57:32 51°15.026 2°54.992 4.3225 3.078608 32.338857 0.009329
2010-12-07 14:58:32 51°14.847 2°54.904 4.5359 3.076712 32.316823 -0.338911
2010-12-07 14:59:32 51°14.649 2°54.948 4.7531 0.071616 0.581544 -0.408559
2010-12-07 15:00:32 51°14.485 2°55.057 4.8576 0.065686 0.531324 -0.408559
2010-12-07 15:01:32 51°14.359 2°55.175 4.9425 0.062148 0.501353 -0.408559
2010-12-07 15:02:32 51°14.264 2°55.278 5.0071 0.058195 0.467598 -0.408559
2010-12-07 15:03:31 51°14.159 2°55.386 5.0782 0.055282 0.44256 -0.408559
2010-12-07 15:04:32 51°14.031 2°55.481 5.21 0.053097 0.423701 -0.408559
2010-12-07 15:05:32 51°13.929 2°55.553 5.3953 0.051536 0.410214 -0.408559
2010-12-07 15:06:32 51°13.837 2°55.628 5.5446 0.049976 0.396802 -0.408559
2010-12-07 15:07:32 51°13.749 2°55.733 5.6779 0.049456 0.39213 -0.408559
2010-12-07 15:08:32 51°13.697 2°55.836 5.7367 0.050704 0.402068 -0.408559
2010-12-07 15:09:32 51°13.67 2°55.923 5.9546 0.051432 0.407697 -0.408559
2010-12-07 15:10:32 51°13.662 2°55.96 6.1368 0.054761 0.434983 -0.408559